createdAt,value
2022-12-01T00:02:12.952Z,-0.4
2022-12-01T00:07:19.282Z,-0.5
2022-12-01T00:12:25.649Z,-0.4
2022-12-01T00:17:31.949Z,-0.5
2022-12-01T00:22:38.298Z,-0.4
2022-12-01T00:27:44.597Z,-0.4
2022-12-01T00:32:50.982Z,-0.4
2022-12-01T00:37:56.380Z,-0.4
2022-12-01T00:43:02.701Z,-0.4
2022-12-01T00:48:09.027Z,-0.4
2022-12-01T00:53:15.358Z,-0.5
2022-12-01T00:58:21.692Z,-0.5
2022-12-01T01:03:28.126Z,-0.4
2022-12-01T01:13:40.701Z,-0.4
2022-12-01T01:18:46.998Z,-0.5
2022-12-01T01:23:53.328Z,-0.5
2022-12-01T01:28:59.720Z,-0.4
2022-12-01T01:34:05.975Z,-0.5
2022-12-01T01:39:12.315Z,-0.5
2022-12-01T01:44:18.707Z,-0.5
2022-12-01T01:54:31.297Z,-0.5
2022-12-01T02:04:43.076Z,-0.5
2022-12-01T02:09:48.745Z,-0.4
2022-12-01T02:14:54.871Z,-0.4
2022-12-01T02:20:01.209Z,-0.4
2022-12-01T02:30:13.925Z,-0.5
2022-12-01T02:35:20.199Z,-0.5
2022-12-01T02:40:25.629Z,-0.5
2022-12-01T02:45:31.951Z,-0.5
2022-12-01T02:55:44.609Z,-0.5
2022-12-01T03:00:50.943Z,-0.5
2022-12-01T03:05:57.275Z,-0.5
2022-12-01T03:11:03.588Z,-0.5
2022-12-01T03:16:09.927Z,-0.5
2022-12-01T03:21:16.251Z,-0.5
2022-12-01T03:26:22.568Z,-0.5
2022-12-01T03:31:28.060Z,-0.5
2022-12-01T03:36:34.366Z,-0.5
2022-12-01T03:46:46.264Z,-0.5
2022-12-01T03:51:52.474Z,-0.6
2022-12-01T03:56:58.859Z,-0.5
2022-12-01T04:02:05.135Z,-0.6
2022-12-01T04:07:11.475Z,-0.6
2022-12-01T04:12:17.795Z,-0.6
2022-12-01T04:17:24.114Z,-0.6
2022-12-01T04:22:30.467Z,-0.6
2022-12-01T04:27:36.777Z,-0.6
2022-12-01T04:32:43.114Z,-0.6
2022-12-01T04:37:49.434Z,-0.7
2022-12-01T04:42:55.754Z,-0.6
2022-12-01T04:48:02.080Z,-0.6
2022-12-01T04:53:08.415Z,-0.6
2022-12-01T04:58:14.732Z,-0.6
2022-12-01T05:03:20.174Z,-0.7
2022-12-01T05:08:26.506Z,-0.8
2022-12-01T05:13:32.833Z,-0.8
2022-12-01T05:18:39.180Z,-0.7
2022-12-01T05:23:45.495Z,-0.7
2022-12-01T05:28:51.842Z,-0.7
2022-12-01T05:39:03.620Z,-0.8
2022-12-01T05:44:09.087Z,-0.8
2022-12-01T05:49:15.486Z,-0.7
2022-12-01T05:54:21.786Z,-0.8
2022-12-01T05:59:28.105Z,-0.8
2022-12-01T06:04:33.562Z,-0.8
2022-12-01T06:09:39.889Z,-0.8
2022-12-01T06:19:52.536Z,-0.8
2022-12-01T06:24:58.875Z,-0.8
2022-12-01T06:30:05.205Z,-0.8
2022-12-01T06:35:11.551Z,-0.8
2022-12-01T06:40:17.883Z,-0.8
2022-12-01T06:45:24.191Z,-0.8
2022-12-01T06:50:30.556Z,-0.8
2022-12-01T06:55:36.927Z,-0.8
2022-12-01T07:00:43.180Z,-0.8
2022-12-01T07:05:49.649Z,-0.8
2022-12-01T07:10:54.979Z,-0.7
2022-12-01T07:16:01.290Z,-0.8
2022-12-01T07:21:07.601Z,-0.8
2022-12-01T07:26:13.941Z,-0.8
2022-12-01T07:31:20.262Z,-0.8
2022-12-01T07:36:25.846Z,-0.8
2022-12-01T07:41:31.316Z,-0.8
2022-12-01T07:46:37.498Z,-0.8
2022-12-01T07:51:44.000Z,-0.7
2022-12-01T07:56:50.261Z,-0.8
2022-12-01T08:01:56.616Z,-0.8
2022-12-01T08:07:02.828Z,-0.7
2022-12-01T08:12:09.157Z,-0.8
2022-12-01T08:17:15.598Z,-0.7
2022-12-01T08:22:21.810Z,-0.6
2022-12-01T08:27:28.180Z,-0.6
2022-12-01T08:32:34.460Z,-0.6
2022-12-01T08:37:40.772Z,-0.7
2022-12-01T08:42:47.262Z,-0.6
2022-12-01T08:47:52.624Z,-0.6
2022-12-01T08:52:58.900Z,-0.5
2022-12-01T08:58:05.361Z,-0.6
2022-12-01T09:03:11.599Z,-0.5
2022-12-01T09:08:17.913Z,-0.5
2022-12-01T09:13:24.241Z,-0.5
2022-12-01T09:23:36.896Z,-0.6
2022-12-01T09:28:43.223Z,-0.6
2022-12-01T09:33:49.552Z,-0.5
2022-12-01T09:38:55.874Z,-0.4
2022-12-01T09:44:02.252Z,-0.4
2022-12-01T09:49:08.552Z,-0.4
2022-12-01T09:54:14.878Z,-0.4
2022-12-01T10:04:27.523Z,-0.5
2022-12-01T10:09:32.970Z,-0.5
2022-12-01T10:14:39.315Z,-0.5
2022-12-01T10:19:45.613Z,-0.5
2022-12-01T10:24:51.959Z,-0.4
2022-12-01T10:29:58.278Z,-0.3
2022-12-01T10:35:04.651Z,-0.3
2022-12-01T10:40:11.090Z,-0.3
2022-12-01T10:45:17.425Z,-0.3
2022-12-01T10:50:23.584Z,-0.3
2022-12-01T10:55:30.056Z,-0.3
2022-12-01T11:00:36.252Z,-0.3
2022-12-01T11:05:42.575Z,-0.3
2022-12-01T11:10:48.989Z,-0.2
2022-12-01T11:15:55.245Z,-0.2
2022-12-01T11:51:39.727Z,-0.3
2022-12-01T11:56:45.977Z,-0.3
2022-12-01T12:01:52.346Z,-0.3
2022-12-01T12:12:04.236Z,-0.1
2022-12-01T12:22:16.826Z,-0.1
2022-12-01T12:27:23.172Z,-0.1
2022-12-01T12:32:29.308Z,0
2022-12-01T12:37:35.783Z,0
2022-12-01T12:42:42.092Z,0
2022-12-01T12:47:48.492Z,0
2022-12-01T12:52:54.767Z,0
2022-12-01T12:58:01.151Z,0
2022-12-01T13:03:06.534Z,-0.1
2022-12-01T13:08:12.946Z,-0.2
2022-12-01T13:13:18.321Z,-0.1
2022-12-01T13:18:24.727Z,-0.1
2022-12-01T13:23:31.163Z,-0.1
2022-12-01T13:28:37.215Z,-0.1
2022-12-01T13:33:43.660Z,-0.1
2022-12-01T13:38:49.940Z,-0.1
2022-12-01T13:43:56.387Z,-0.2
2022-12-01T13:49:03.044Z,-0.2
2022-12-01T13:54:09.400Z,-0.2
2022-12-01T13:59:15.393Z,-0.2
2022-12-01T14:09:26.980Z,-0.1
2022-12-01T14:14:32.413Z,-0.1
2022-12-01T14:19:38.750Z,-0.1
2022-12-01T14:24:45.181Z,-0.2
2022-12-01T14:29:51.423Z,-0.2
2022-12-01T14:40:04.090Z,-0.3
2022-12-01T14:50:16.710Z,-0.3
2022-12-01T15:00:28.505Z,-0.3
2022-12-01T15:05:34.854Z,-0.3
2022-12-01T15:10:41.191Z,-0.4
2022-12-01T15:15:47.572Z,-0.4
2022-12-01T15:20:53.837Z,-0.5
2022-12-01T15:25:59.349Z,-0.5
2022-12-01T15:31:05.648Z,-0.5
2022-12-01T15:36:11.967Z,-0.5
2022-12-01T15:41:17.436Z,-0.6
2022-12-01T15:51:30.083Z,-0.6
2022-12-01T15:56:36.409Z,-0.7
2022-12-01T16:01:42.742Z,-0.7
2022-12-01T16:06:49.066Z,-0.7
2022-12-01T16:11:55.379Z,-0.7
2022-12-01T16:17:01.717Z,-0.8
2022-12-01T16:22:08.055Z,-0.7
2022-12-01T16:27:14.376Z,-0.8
2022-12-01T16:42:33.355Z,-0.8
2022-12-01T16:47:39.691Z,-0.8
2022-12-01T16:52:46.007Z,-0.7
2022-12-01T17:08:05.079Z,-0.8
2022-12-01T17:13:11.431Z,-0.8
2022-12-01T17:23:24.093Z,-0.8
2022-12-01T17:33:36.704Z,-0.8
2022-12-01T17:38:43.038Z,-0.8
2022-12-01T17:43:49.384Z,-0.8
2022-12-01T17:48:55.696Z,-0.8
2022-12-01T17:54:02.044Z,-0.8
2022-12-01T17:59:08.355Z,-0.8
2022-12-01T18:04:14.664Z,-0.8
2022-12-01T18:09:21.002Z,-0.9
2022-12-01T18:14:27.316Z,-0.9
2022-12-01T18:19:33.659Z,-0.9
2022-12-01T18:24:39.990Z,-0.9
2022-12-01T18:45:05.289Z,-0.9
2022-12-01T18:50:11.879Z,-0.8
2022-12-01T18:55:18.465Z,-0.8
2022-12-01T19:00:25.031Z,-0.8
2022-12-01T19:05:31.605Z,-0.8
2022-12-01T19:15:44.744Z,-0.8
2022-12-01T19:25:57.900Z,-0.8
2022-12-01T19:36:11.052Z,-0.8
2022-12-01T19:56:37.989Z,-0.8
2022-12-01T20:01:45.245Z,-0.8
2022-12-01T20:06:52.363Z,-0.8
2022-12-01T20:11:59.637Z,-0.8
2022-12-01T20:22:13.530Z,-0.8
2022-12-01T20:27:20.831Z,-0.8
2022-12-01T20:32:27.891Z,-0.8
2022-12-01T20:42:42.272Z,-0.8
2022-12-01T20:47:49.466Z,-0.8
2022-12-01T20:52:56.645Z,-0.8
2022-12-01T21:03:11.023Z,-0.8
2022-12-01T21:08:18.284Z,-0.8
2022-12-01T21:23:39.995Z,-0.8
2022-12-01T21:28:46.997Z,-0.8
2022-12-01T21:39:00.924Z,-0.8
2022-12-01T21:49:15.499Z,-0.7
2022-12-01T21:59:29.689Z,-0.7
2022-12-01T22:04:36.914Z,-0.7
2022-12-01T22:09:44.073Z,-0.7
2022-12-01T22:19:58.539Z,-0.7
2022-12-01T22:25:05.702Z,-0.7
2022-12-01T22:35:20.040Z,-0.7
2022-12-01T22:40:27.213Z,-0.7
2022-12-01T22:45:34.405Z,-0.7
2022-12-01T23:00:55.542Z,-0.6
2022-12-01T23:06:02.775Z,-0.6
2022-12-01T23:16:17.119Z,-0.6
2022-12-01T23:21:24.303Z,-0.6
2022-12-01T23:26:31.501Z,-0.6
2022-12-01T23:31:38.701Z,-0.6
2022-12-01T23:36:45.900Z,-0.6
2022-12-01T23:41:53.086Z,-0.6
2022-12-01T23:47:00.310Z,-0.6
2022-12-01T23:57:14.635Z,-0.6
